Time;durP1;ratioP1;P1;durP2;ratioP2;P2;SDS_P1;SDS_P2;PMS_P1;PMS_P2;Temp;Humidity;BMP_temperature;BMP_pressure;BME280_temperature;BME280_humidity;BME280_pressure;Samples;Min_cycle;Max_cycle;Signal;HPM_P1;HPM_P2
2022/06/06 00:01:18;;;;;;;5.97;5.60;;;20.90;48.10;;;;;;4983118;28;20432;-57
2022/06/06 00:03:44;;;;;;;5.87;5.57;;;20.90;48.00;;;;;;4979937;28;20447;-57
2022/06/06 00:06:20;;;;;;;5.50;5.20;;;20.90;48.10;;;;;;4983027;28;20509;-57
2022/06/06 00:08:47;;;;;;;5.77;5.37;;;20.90;48.10;;;;;;4987636;28;20814;-57
2022/06/06 00:11:13;;;;;;;5.73;5.43;;;20.90;48.10;;;;;;4983372;28;20823;-57
2022/06/06 00:13:41;;;;;;;6.33;5.93;;;20.90;48.10;;;;;;4983787;28;20454;-57
2022/06/06 00:16:08;;;;;;;5.47;5.17;;;20.90;48.10;;;;;;4980874;28;20972;-57
2022/06/06 00:18:35;;;;;;;5.60;5.30;;;20.90;48.80;;;;;;4980548;28;20443;-57
2022/06/06 00:21:02;;;;;;;6.03;5.73;;;20.90;48.10;;;;;;4984195;28;20460;-57
2022/06/06 00:23:27;;;;;;;5.67;5.37;;;20.90;48.10;;;;;;4980142;28;21049;-57
2022/06/06 00:25:54;;;;;;;5.40;5.10;;;20.90;48.10;;;;;;4980753;28;20466;-57
2022/06/06 00:28:21;;;;;;;6.30;5.87;;;20.90;48.10;;;;;;4982591;28;20225;-57
2022/06/06 00:30:47;;;;;;;5.60;5.30;;;20.90;48.10;;;;;;4981847;28;20447;-57
2022/06/06 00:35:58;;;;;;;6.33;5.93;;;20.90;48.10;;;;;;4983738;28;20460;-57
2022/06/06 00:38:24;;;;;;;6.13;5.83;;;20.90;48.10;;;;;;4978679;28;20455;-57
2022/06/06 00:40:50;;;;;;;6.20;5.80;;;20.80;48.00;;;;;;4984007;28;20455;-57
2022/06/06 00:43:17;;;;;;;6.23;5.90;;;20.90;48.10;;;;;;4980514;28;20225;-57
2022/06/06 00:45:47;;;;;;;6.07;5.67;;;20.90;48.10;;;;;;4978808;28;20553;-57
2022/06/06 00:48:13;;;;;;;5.70;5.40;;;20.90;48.10;;;;;;4979761;28;20467;-57
2022/06/06 00:50:56;;;;;;;5.70;5.30;;;20.90;48.10;;;;;;4996385;28;20993;-57
2022/06/06 00:53:46;;;;;;;6.07;5.67;;;20.90;48.10;;;;;;4978615;28;20236;-57
2022/06/06 00:56:32;;;;;;;4.80;4.53;;;20.80;48.00;;;;;;4979935;28;20565;-57
2022/06/06 00:59:03;;;;;;;5.50;5.20;;;20.90;48.10;;;;;;4971925;28;20482;-57
2022/06/06 01:01:31;;;;;;;5.90;5.47;;;20.90;48.10;;;;;;4981983;28;20541;-57
2022/06/06 01:03:58;;;;;;;5.23;4.97;;;20.80;48.00;;;;;;4977877;28;21223;-57
2022/06/06 01:06:27;;;;;;;5.47;5.17;;;20.80;48.00;;;;;;4981569;28;20552;-57
2022/06/06 01:08:52;;;;;;;5.00;4.70;;;20.80;48.10;;;;;;4978751;28;20455;-56
2022/06/06 01:11:18;;;;;;;5.60;5.30;;;20.90;48.20;;;;;;4986326;28;20542;-57
2022/06/06 01:13:45;;;;;;;5.20;4.80;;;20.80;48.00;;;;;;4976653;28;20290;-57
2022/06/06 01:16:37;;;;;;;5.30;5.00;;;20.80;48.00;;;;;;4979683;28;20232;-57
2022/06/06 01:19:14;;;;;;;5.87;5.43;;;20.90;48.20;;;;;;4979818;28;20462;-57
2022/06/06 01:22:22;;;;;;;5.90;5.40;;;20.80;48.00;;;;;;4981325;28;20432;-57
2022/06/06 01:24:53;;;;;;;5.90;5.50;;;20.80;48.00;;;;;;4982484;28;20539;-57
2022/06/06 01:27:18;;;;;;;5.47;5.17;;;20.80;48.10;;;;;;4976981;28;20462;-57
2022/06/06 01:29:53;;;;;;;4.87;4.57;;;20.80;48.10;;;;;;4990107;28;20455;-57
2022/06/06 01:32:21;;;;;;;5.60;5.30;;;20.80;48.10;;;;;;4983321;28;20227;-58
2022/06/06 01:34:51;;;;;;;5.27;5.07;;;20.80;48.10;;;;;;4981275;28;20940;-57
2022/06/06 01:37:43;;;;;;;5.80;5.50;;;20.80;48.10;;;;;;4982073;28;20462;-57
2022/06/06 01:40:15;;;;;;;5.47;5.17;;;20.80;48.00;;;;;;4978701;28;20561;-57
2022/06/06 01:42:48;;;;;;;6.50;6.10;;;20.90;48.10;;;;;;4982557;28;20448;-57
2022/06/06 01:45:24;;;;;;;5.20;4.90;;;20.80;48.00;;;;;;4981013;28;20474;-57
2022/06/06 01:47:53;;;;;;;5.83;5.53;;;20.80;48.00;;;;;;4992305;28;20513;-57
2022/06/06 01:50:20;;;;;;;4.60;4.40;;;20.80;48.00;;;;;;4982248;28;20856;-57
2022/06/06 01:53:01;;;;;;;5.70;5.40;;;20.80;48.00;;;;;;4981591;28;20469;-57
2022/06/06 01:55:28;;;;;;;6.07;5.63;;;20.80;48.00;;;;;;4980410;28;20511;-57
2022/06/06 01:57:59;;;;;;;5.10;4.80;;;20.90;48.10;;;;;;4980690;28;20962;-56
2022/06/06 02:00:24;;;;;;;5.67;5.37;;;20.80;48.00;;;;;;4986856;28;20830;-57
2022/06/06 02:02:50;;;;;;;5.30;5.03;;;20.80;48.00;;;;;;4985816;28;20422;-57
2022/06/06 02:05:16;;;;;;;6.00;5.60;;;20.90;48.10;;;;;;4983330;28;20220;-57
2022/06/06 02:07:43;;;;;;;5.03;4.73;;;20.90;48.10;;;;;;4982334;28;20299;-57
2022/06/06 02:10:11;;;;;;;5.30;5.00;;;20.80;48.00;;;;;;4983216;28;20522;-58
2022/06/06 02:12:40;;;;;;;5.27;4.97;;;20.90;48.10;;;;;;4985849;28;20508;-57
2022/06/06 02:15:08;;;;;;;5.10;4.80;;;20.80;48.00;;;;;;4981565;28;20478;-57
2022/06/06 02:17:34;;;;;;;5.23;4.93;;;20.80;48.00;;;;;;4982472;28;20446;-57
2022/06/06 02:20:01;;;;;;;5.33;4.93;;;20.80;48.00;;;;;;4982922;28;21035;-57
2022/06/06 02:22:28;;;;;;;5.07;4.77;;;20.80;48.00;;;;;;4982995;28;20236;-57
2022/06/06 02:24:53;;;;;;;5.10;4.80;;;20.80;47.90;;;;;;4982162;28;21314;-57
2022/06/06 02:27:19;;;;;;;5.50;5.20;;;20.80;47.90;;;;;;4982074;28;20473;-56
2022/06/06 02:29:45;;;;;;;5.93;5.40;;;20.80;48.00;;;;;;4981587;28;20221;-57
2022/06/06 02:32:11;;;;;;;5.00;4.70;;;20.80;47.90;;;;;;4982564;28;20229;-57
2022/06/06 02:34:37;;;;;;;4.53;4.33;;;20.80;47.90;;;;;;4984028;28;20226;-57
2022/06/06 02:37:04;;;;;;;5.20;4.90;;;20.90;48.10;;;;;;4982228;28;20455;-57
2022/06/06 02:39:30;;;;;;;4.63;4.37;;;20.80;47.90;;;;;;4982841;28;20502;-57
2022/06/06 02:41:56;;;;;;;5.70;5.40;;;20.80;48.00;;;;;;4984016;28;20451;-57
2022/06/06 02:44:22;;;;;;;4.47;4.27;;;20.80;48.00;;;;;;4985647;28;20708;-57
2022/06/06 02:46:48;;;;;;;5.37;5.07;;;20.80;48.00;;;;;;4983397;28;20486;-57
2022/06/06 02:49:14;;;;;;;4.83;4.60;;;20.80;47.90;;;;;;4980297;28;20483;-57
2022/06/06 02:51:39;;;;;;;4.53;4.33;;;20.80;47.90;;;;;;4980920;28;20248;-57
2022/06/06 02:54:05;;;;;;;4.60;4.30;;;20.90;48.00;;;;;;4990729;28;20681;-57
2022/06/06 02:56:30;;;;;;;5.27;4.97;;;20.90;48.00;;;;;;4984401;28;20646;-57
2022/06/06 02:59:00;;;;;;;4.50;4.27;;;20.80;47.90;;;;;;4981978;28;20225;-57
2022/06/06 03:01:25;;;;;;;4.70;4.50;;;20.90;48.10;;;;;;4986082;28;20213;-56
2022/06/06 03:03:51;;;;;;;4.57;4.27;;;20.80;47.90;;;;;;4985295;28;20536;-57
2022/06/06 03:06:29;;;;;;;5.00;4.70;;;20.80;47.90;;;;;;4986159;28;20235;-57
2022/06/06 03:09:03;;;;;;;5.10;4.80;;;20.80;47.90;;;;;;4983915;28;20574;-57
2022/06/06 03:11:57;;;;;;;4.37;4.17;;;20.90;48.00;;;;;;4983178;28;20466;-57
2022/06/06 03:14:43;;;;;;;5.33;5.03;;;20.80;48.00;;;;;;4981904;28;20450;-57
2022/06/06 03:21:08;;;;;;;4.40;4.10;;;20.80;47.90;;;;;;4979387;28;20966;-57
2022/06/06 03:23:55;;;;;;;4.70;4.50;;;20.90;48.10;;;;;;4982587;28;20942;-57
2022/06/06 03:26:38;;;;;;;4.00;3.80;;;20.80;47.90;;;;;;4979516;28;20892;-57
2022/06/06 03:29:16;;;;;;;5.10;4.80;;;20.80;48.10;;;;;;4983299;28;21094;-57
2022/06/06 03:31:53;;;;;;;4.57;4.30;;;20.80;48.00;;;;;;4982792;28;20417;-57
2022/06/06 03:34:41;;;;;;;4.27;4.03;;;20.80;48.00;;;;;;4979575;28;20458;-57
2022/06/06 03:37:52;;;;;;;4.53;4.33;;;20.80;47.90;;;;;;4985263;28;20467;-57
2022/06/06 03:40:30;;;;;;;4.20;3.93;;;20.80;48.00;;;;;;4969931;28;20447;-57
2022/06/06 03:43:20;;;;;;;4.30;4.10;;;20.80;48.00;;;;;;4981201;28;20462;-57
2022/06/06 03:45:54;;;;;;;4.60;4.30;;;20.80;48.00;;;;;;4982297;28;20461;-57
2022/06/06 03:49:04;;;;;;;4.90;4.60;;;20.80;48.10;;;;;;4982549;28;20519;-57
2022/06/06 03:52:03;;;;;;;4.30;4.10;;;20.80;47.90;;;;;;4980800;28;20470;-57
2022/06/06 03:54:46;;;;;;;4.50;4.30;;;20.80;48.00;;;;;;4983550;28;20507;-57
2022/06/06 03:57:18;;;;;;;4.40;4.20;;;20.80;48.00;;;;;;4979053;28;20469;-58
2022/06/06 03:59:47;;;;;;;4.43;4.23;;;20.80;48.00;;;;;;4978913;28;20459;-57
2022/06/06 04:02:23;;;;;;;3.93;3.73;;;20.80;48.00;;;;;;4982764;28;20969;-57
2022/06/06 04:04:50;;;;;;;4.07;3.87;;;20.80;48.00;;;;;;4978440;28;20466;-57
2022/06/06 04:07:16;;;;;;;4.20;4.00;;;20.80;48.00;;;;;;4981394;28;20594;-57
2022/06/06 04:09:42;;;;;;;4.60;4.30;;;20.80;48.00;;;;;;4977565;28;20531;-57
2022/06/06 04:12:42;;;;;;;4.37;4.17;;;20.80;48.00;;;;;;4983254;28;20216;-57
2022/06/06 04:15:30;;;;;;;4.00;3.80;;;20.80;47.90;;;;;;4979287;28;20208;-57
2022/06/06 04:18:26;;;;;;;4.40;4.10;;;20.80;48.10;;;;;;4982513;28;20456;-57
2022/06/06 04:21:04;;;;;;;3.97;3.77;;;20.80;48.00;;;;;;4982943;28;20501;-57
2022/06/06 04:23:56;;;;;;;4.37;4.17;;;20.80;47.90;;;;;;4985417;28;20437;-57
2022/06/06 04:26:41;;;;;;;3.73;3.53;;;20.80;47.90;;;;;;4984170;28;20570;-57
2022/06/06 04:29:32;;;;;;;3.80;3.60;;;20.80;48.00;;;;;;4982705;28;20494;-57
2022/06/06 04:32:23;;;;;;;4.60;4.40;;;20.80;48.00;;;;;;4972589;28;20802;-57
2022/06/06 04:35:06;;;;;;;4.33;4.00;;;20.80;48.00;;;;;;4983451;28;20808;-57
2022/06/06 04:37:41;;;;;;;4.03;3.83;;;20.80;47.90;;;;;;4980122;28;20521;-57
2022/06/06 04:40:41;;;;;;;3.80;3.60;;;20.80;48.00;;;;;;4980577;28;20537;-57
2022/06/06 04:43:47;;;;;;;3.80;3.60;;;20.80;47.90;;;;;;4974520;28;20471;-57
2022/06/06 04:46:41;;;;;;;4.90;4.43;;;20.80;47.90;;;;;;4979316;28;20491;-57
2022/06/06 04:49:08;;;;;;;3.60;3.40;;;20.80;47.90;;;;;;4980702;28;20448;-57
2022/06/06 04:51:35;;;;;;;4.03;3.83;;;20.80;48.00;;;;;;4979775;28;20455;-56
2022/06/06 04:54:02;;;;;;;3.77;3.57;;;20.80;48.00;;;;;;4978991;28;20459;-56
2022/06/06 04:56:28;;;;;;;3.80;3.60;;;20.80;48.00;;;;;;4983081;28;20437;-56
2022/06/06 04:58:59;;;;;;;3.80;3.60;;;20.90;48.00;;;;;;4979790;28;20451;-56
2022/06/06 05:01:26;;;;;;;3.47;3.27;;;20.80;47.90;;;;;;4980389;28;20281;-57
2022/06/06 05:03:52;;;;;;;3.47;3.27;;;20.80;47.90;;;;;;4980532;28;20960;-57
2022/06/06 05:06:39;;;;;;;3.87;3.67;;;20.80;47.90;;;;;;4979215;28;20562;-56
2022/06/06 05:09:11;;;;;;;3.57;3.37;;;20.80;47.90;;;;;;4981451;28;20231;-57
2022/06/06 05:11:55;;;;;;;3.70;3.50;;;20.80;48.00;;;;;;4980457;28;20960;-57
2022/06/06 05:14:48;;;;;;;3.80;3.60;;;20.90;48.00;;;;;;4979969;28;20549;-57
2022/06/06 05:17:32;;;;;;;3.67;3.47;;;20.80;47.90;;;;;;4979020;28;20474;-57
2022/06/06 05:20:22;;;;;;;3.43;3.23;;;20.90;48.10;;;;;;4978696;28;20451;-56
2022/06/06 05:23:15;;;;;;;3.80;3.60;;;20.80;47.90;;;;;;4983051;28;20549;-57
2022/06/06 05:25:59;;;;;;;3.70;3.50;;;20.90;48.80;;;;;;4978874;28;20476;-57
2022/06/06 05:28:57;;;;;;;3.37;3.17;;;20.80;48.00;;;;;;4982144;28;20636;-57
2022/06/06 05:31:41;;;;;;;3.40;3.20;;;20.90;48.00;;;;;;4977057;28;20477;-56
2022/06/06 05:34:33;;;;;;;3.60;3.40;;;20.80;48.00;;;;;;4982823;28;20473;-57
2022/06/06 05:37:07;;;;;;;3.27;3.17;;;20.80;47.90;;;;;;4987006;28;20454;-57
2022/06/06 05:40:09;;;;;;;3.40;3.20;;;20.80;48.00;;;;;;4986401;28;20500;-57
2022/06/06 05:42:58;;;;;;;3.67;3.47;;;20.90;48.00;;;;;;4986599;28;20447;-57
2022/06/06 05:45:36;;;;;;;3.73;3.53;;;20.90;48.00;;;;;;4983201;28;20513;-57
2022/06/06 05:48:20;;;;;;;3.50;3.30;;;20.80;48.00;;;;;;4987402;28;20476;-56
2022/06/06 05:51:10;;;;;;;3.30;3.10;;;20.80;47.90;;;;;;4986587;28;20439;-57
2022/06/06 05:53:43;;;;;;;3.53;3.33;;;20.90;48.10;;;;;;4981251;28;21257;-57
2022/06/06 05:56:43;;;;;;;2.93;2.83;;;20.90;48.00;;;;;;4983834;28;20459;-56
2022/06/06 05:59:17;;;;;;;3.53;3.33;;;20.90;48.00;;;;;;4984848;28;20447;-57
2022/06/06 06:02:02;;;;;;;3.67;3.47;;;20.90;48.10;;;;;;4987402;28;20544;-57
2022/06/06 06:04:46;;;;;;;5.07;3.97;;;20.90;48.10;;;;;;4986553;28;20531;-57
2022/06/06 06:07:37;;;;;;;3.50;3.20;;;20.90;48.10;;;;;;4981403;28;20462;-58
2022/06/06 06:10:35;;;;;;;3.07;2.87;;;20.90;48.10;;;;;;4980720;28;20466;-58
2022/06/06 06:13:10;;;;;;;4.10;3.00;;;20.90;48.10;;;;;;4981844;28;20459;-57
2022/06/06 06:15:39;;;;;;;3.53;3.20;;;20.90;48.10;;;;;;4986298;28;20457;-56
2022/06/06 06:18:19;;;;;;;3.80;3.20;;;20.90;48.10;;;;;;4983497;28;20499;-57
2022/06/06 06:20:51;;;;;;;3.43;3.23;;;20.90;48.10;;;;;;4980021;28;20451;-57
2022/06/06 06:23:22;;;;;;;3.17;2.90;;;20.90;48.00;;;;;;4982892;28;20454;-57
2022/06/06 06:25:49;;;;;;;3.57;3.37;;;20.90;48.10;;;;;;4983421;28;20986;-57
2022/06/06 06:28:16;;;;;;;2.90;2.70;;;20.90;48.10;;;;;;4980290;28;20550;-57
2022/06/06 06:31:14;;;;;;;4.63;4.33;;;20.90;48.20;;;;;;4981029;28;20486;-57
2022/06/06 06:33:39;;;;;;;3.17;2.83;;;20.90;48.10;;;;;;4981119;28;20451;-57
2022/06/06 06:36:46;;;;;;;2.77;2.57;;;20.90;48.20;;;;;;4984933;28;20458;-57
2022/06/06 06:39:29;;;;;;;3.20;3.00;;;20.90;48.20;;;;;;4984676;28;20217;-57
2022/06/06 06:42:17;;;;;;;3.50;3.30;;;20.90;48.20;;;;;;4983099;28;20466;-57
2022/06/06 06:45:08;;;;;;;3.20;3.00;;;20.90;48.20;;;;;;4979299;28;20467;-57
2022/06/06 06:47:35;;;;;;;3.00;2.90;;;20.90;48.20;;;;;;4984681;28;20458;-56
2022/06/06 06:50:13;;;;;;;3.00;2.80;;;20.90;48.20;;;;;;4981800;28;20466;-57
2022/06/06 06:52:44;;;;;;;3.23;3.03;;;20.90;48.20;;;;;;4983693;28;20537;-57
2022/06/06 06:55:32;;;;;;;3.50;3.20;;;20.90;48.20;;;;;;4982591;28;20456;-57
2022/06/06 06:58:13;;;;;;;3.20;3.00;;;20.90;48.20;;;;;;4982792;28;20481;-56
2022/06/06 07:01:01;;;;;;;3.30;3.07;;;20.90;48.20;;;;;;4980253;28;20442;-57
2022/06/06 07:09:55;;;;;;;3.40;3.20;;;20.90;48.20;;;;;;4985601;28;20501;-57
2022/06/06 07:12:33;;;;;;;3.20;3.00;;;20.90;48.10;;;;;;4983161;28;20474;-57
2022/06/06 07:15:13;;;;;;;3.17;2.97;;;20.90;48.10;;;;;;4988637;28;20537;-57
2022/06/06 07:17:47;;;;;;;2.97;2.77;;;20.90;48.20;;;;;;4982534;28;20433;-57
2022/06/06 07:20:15;;;;;;;3.10;2.90;;;20.90;48.10;;;;;;4978116;28;20454;-57
2022/06/06 07:23:02;;;;;;;2.60;2.40;;;20.90;48.20;;;;;;4985601;28;20459;-57
2022/06/06 07:25:38;;;;;;;2.47;2.33;;;20.90;48.10;;;;;;4980831;28;20522;-56
2022/06/06 07:28:05;;;;;;;2.77;2.57;;;20.90;48.10;;;;;;4981079;28;21004;-56
2022/06/06 07:30:37;;;;;;;2.57;2.47;;;20.90;48.20;;;;;;4983324;28;20458;-56
2022/06/06 07:33:14;;;;;;;2.50;2.40;;;20.90;48.20;;;;;;4980862;28;20458;-56
2022/06/06 07:36:06;;;;;;;2.50;2.40;;;20.90;48.20;;;;;;4982218;28;20477;-56
2022/06/06 07:38:40;;;;;;;2.70;2.50;;;20.90;48.20;;;;;;4979549;28;20463;-56
2022/06/06 07:41:26;;;;;;;2.70;2.50;;;20.90;48.20;;;;;;4979774;28;20454;-57
2022/06/06 07:44:18;;;;;;;2.93;2.73;;;20.90;48.20;;;;;;4984802;28;20481;-57
2022/06/06 07:46:47;;;;;;;2.37;2.20;;;20.90;48.20;;;;;;4981283;28;20857;-56
2022/06/06 07:49:27;;;;;;;2.50;2.30;;;20.90;48.20;;;;;;4998673;28;21277;-57
2022/06/06 07:52:19;;;;;;;2.43;2.33;;;20.90;48.20;;;;;;4982112;28;20505;-57
2022/06/06 07:55:04;;;;;;;2.43;2.33;;;20.90;48.20;;;;;;4978991;28;20451;-57
2022/06/06 07:57:49;;;;;;;2.67;2.57;;;20.90;48.20;;;;;;4978940;28;20479;-57
2022/06/06 08:00:19;;;;;;;2.50;2.40;;;20.90;48.20;;;;;;4980127;28;20455;-57
2022/06/06 08:02:52;;;;;;;2.60;2.50;;;20.90;48.20;;;;;;4984257;28;20533;-57
2022/06/06 08:05:51;;;;;;;2.23;2.13;;;20.90;48.20;;;;;;4982094;28;20465;-57
2022/06/06 08:08:39;;;;;;;2.43;2.33;;;20.90;48.20;;;;;;4978781;28;20470;-57
2022/06/06 08:11:19;;;;;;;2.70;2.50;;;20.90;48.10;;;;;;4979822;28;20538;-57
2022/06/06 08:14:19;;;;;;;2.30;2.20;;;20.90;48.10;;;;;;4982940;28;20935;-57
2022/06/06 08:17:01;;;;;;;2.20;2.10;;;20.90;48.10;;;;;;4980296;28;20814;-57
2022/06/06 08:19:35;;;;;;;5.10;2.33;;;20.90;48.10;;;;;;4978142;28;20463;-57
2022/06/06 08:22:02;;;;;;;2.60;2.40;;;20.90;48.10;;;;;;4977634;28;20475;-57
2022/06/06 08:24:33;;;;;;;2.37;2.13;;;20.90;48.10;;;;;;4985091;28;20462;-56
2022/06/06 08:27:01;;;;;;;2.17;2.07;;;20.90;48.10;;;;;;4984760;28;20978;-57
2022/06/06 08:29:27;;;;;;;2.80;2.27;;;20.90;48.10;;;;;;4982082;28;20486;-57
2022/06/06 08:31:54;;;;;;;2.30;2.20;;;20.90;48.10;;;;;;4984404;28;20454;-57
2022/06/06 08:34:21;;;;;;;2.00;1.90;;;20.90;48.20;;;;;;4983027;28;20442;-57
2022/06/06 08:36:57;;;;;;;2.00;1.90;;;20.90;48.10;;;;;;4980601;28;20462;-57
2022/06/06 08:39:49;;;;;;;2.30;2.20;;;20.90;48.20;;;;;;4976825;28;20535;-57
2022/06/06 08:42:49;;;;;;;2.20;2.10;;;20.90;48.90;;;;;;4983106;28;20462;-58
2022/06/06 08:45:22;;;;;;;2.67;2.47;;;20.90;48.10;;;;;;4980927;28;20437;-56
2022/06/06 08:48:06;;;;;;;2.27;2.17;;;20.90;48.20;;;;;;4984325;28;20978;-57
2022/06/06 08:50:57;;;;;;;2.43;2.23;;;20.90;48.10;;;;;;4981034;28;20492;-57
2022/06/06 08:53:54;;;;;;;2.23;2.10;;;20.90;48.10;;;;;;4981650;28;20959;-57
2022/06/06 08:56:44;;;;;;;4.53;2.20;;;20.90;48.80;;;;;;4979487;28;20814;-58
2022/06/06 08:59:38;;;;;;;1.97;1.70;;;20.90;48.10;;;;;;4974215;28;20847;-58
2022/06/06 09:02:40;;;;;;;1.93;1.83;;;20.90;48.10;;;;;;4983528;28;20506;-57
2022/06/06 09:05:29;;;;;;;3.27;2.00;;;20.90;48.10;;;;;;4994380;28;20919;-57
2022/06/06 09:08:42;;;;;;;2.53;2.00;;;20.90;48.10;;;;;;4975736;28;20446;-57
2022/06/06 09:11:45;;;;;;;1.90;1.80;;;20.90;48.10;;;;;;4960649;28;20479;-57
2022/06/06 09:14:33;;;;;;;1.97;1.87;;;20.90;48.10;;;;;;4983910;28;20521;-57
2022/06/06 09:17:10;;;;;;;1.70;1.60;;;20.90;48.10;;;;;;4984058;28;20478;-57
2022/06/06 09:20:00;;;;;;;2.10;2.00;;;20.90;48.10;;;;;;4986594;28;20950;-57
2022/06/06 09:22:29;;;;;;;1.90;1.80;;;20.90;48.10;;;;;;4988327;28;20461;-57
2022/06/06 09:25:25;;;;;;;2.10;1.90;;;20.90;48.10;;;;;;4987353;28;20557;-57
2022/06/06 09:28:21;;;;;;;1.80;1.70;;;20.90;48.10;;;;;;4985396;28;20478;-57
2022/06/06 09:31:18;;;;;;;1.53;1.43;;;20.80;48.00;;;;;;4984551;28;20451;-57
2022/06/06 09:34:03;;;;;;;1.60;1.50;;;20.80;48.10;;;;;;4985434;28;20585;-57
2022/06/06 09:37:06;;;;;;;2.07;1.57;;;20.80;48.10;;;;;;4984281;28;20462;-57
2022/06/06 09:39:49;;;;;;;1.30;1.20;;;20.80;48.00;;;;;;4978462;28;20799;-57
2022/06/06 09:42:35;;;;;;;1.30;1.20;;;20.80;48.10;;;;;;4984982;28;20458;-57
2022/06/06 09:45:19;;;;;;;1.40;1.30;;;20.90;48.10;;;;;;4985518;28;20531;-57
2022/06/06 09:47:53;;;;;;;1.77;1.50;;;20.90;48.10;;;;;;4988431;28;20481;-56
2022/06/06 09:50:37;;;;;;;8.23;2.40;;;20.80;47.90;;;;;;4984066;28;20462;-57
2022/06/06 09:53:26;;;;;;;1.40;1.30;;;20.80;47.90;;;;;;4984216;28;20521;-58
2022/06/06 09:59:52;;;;;;;1.67;1.10;;;20.80;47.80;;;;;;4986778;28;20595;-57
2022/06/06 10:02:40;;;;;;;1.37;1.27;;;20.80;47.70;;;;;;4987036;28;20508;-57
2022/06/06 10:05:06;;;;;;;1.17;1.00;;;20.80;47.70;;;;;;4982447;28;20462;-58
2022/06/06 10:07:52;;;;;;;2.93;1.10;;;20.80;47.70;;;;;;4982926;28;20469;-57
2022/06/06 10:11:11;;;;;;;1.50;1.40;;;20.80;48.30;;;;;;4987787;28;20229;-57
2022/06/06 10:14:07;;;;;;;1.30;1.20;;;20.90;47.70;;;;;;4981181;28;20463;-57
2022/06/06 10:16:56;;;;;;;1.30;1.20;;;20.80;47.60;;;;;;4984565;28;20545;-57
2022/06/06 10:19:48;;;;;;;1.10;1.00;;;20.80;47.60;;;;;;4985455;28;20517;-57
2022/06/06 10:22:27;;;;;;;1.23;1.13;;;20.80;47.60;;;;;;4996259;28;20460;-57
2022/06/06 10:24:55;;;;;;;1.90;1.13;;;20.80;47.60;;;;;;4981315;28;20482;-57
2022/06/06 10:28:04;;;;;;;1.50;1.40;;;20.80;47.60;;;;;;4985485;28;20795;-57
2022/06/06 10:30:50;;;;;;;1.30;1.20;;;20.80;47.60;;;;;;4984548;28;20459;-57
2022/06/06 10:33:43;;;;;;;1.20;1.10;;;20.80;47.60;;;;;;4984312;28;20948;-57
2022/06/06 10:36:27;;;;;;;1.20;1.10;;;20.80;47.50;;;;;;4984728;28;20819;-57
2022/06/06 10:38:56;;;;;;;1.40;1.30;;;20.80;47.50;;;;;;4983839;28;20454;-57
2022/06/06 10:41:49;;;;;;;1.20;1.10;;;20.80;47.50;;;;;;4979953;28;20539;-57
2022/06/06 10:44:44;;;;;;;0.90;0.90;;;20.80;47.50;;;;;;4982237;28;20429;-57
2022/06/06 10:47:33;;;;;;;1.30;1.20;;;20.80;47.50;;;;;;4983347;28;20475;-57
2022/06/06 10:49:59;;;;;;;1.20;1.10;;;20.80;47.50;;;;;;4987715;28;20470;-57
2022/06/06 10:53:01;;;;;;;1.20;1.10;;;20.80;47.50;;;;;;4982041;28;20433;-57
2022/06/06 10:56:01;;;;;;;1.00;1.00;;;20.80;47.40;;;;;;5000360;28;20220;-57
2022/06/06 10:58:48;;;;;;;1.00;0.90;;;20.80;47.40;;;;;;4982345;28;20494;-57
2022/06/06 11:01:38;;;;;;;2.00;0.97;;;20.80;47.40;;;;;;4989777;28;20537;-57
2022/06/06 11:04:33;;;;;;;1.07;0.97;;;20.90;47.40;;;;;;4985453;28;20894;-57
2022/06/06 11:07:33;;;;;;;1.77;1.10;;;20.80;47.30;;;;;;4980658;28;20479;-57
2022/06/06 11:10:21;;;;;;;1.20;1.10;;;20.80;47.40;;;;;;4983324;28;20460;-57
2022/06/06 11:13:13;;;;;;;1.00;0.90;;;20.80;47.30;;;;;;4985114;28;20496;-57
2022/06/06 11:15:46;;;;;;;1.23;1.13;;;20.80;47.30;;;;;;4988013;28;20454;-57
2022/06/06 11:18:36;;;;;;;1.20;1.10;;;20.80;47.40;;;;;;4983410;28;20517;-57
2022/06/06 11:21:12;;;;;;;1.30;1.20;;;20.80;47.30;;;;;;4981663;28;20462;-57
2022/06/06 11:23:55;;;;;;;1.20;1.10;;;20.80;47.30;;;;;;4980566;28;20980;-57
2022/06/06 11:26:32;;;;;;;1.20;1.10;;;20.80;47.30;;;;;;4980907;28;20518;-57
2022/06/06 11:29:20;;;;;;;1.10;1.00;;;20.80;47.30;;;;;;4983599;28;20445;-57
2022/06/06 11:32:24;;;;;;;1.10;1.00;;;20.80;47.30;;;;;;4984100;28;20462;-57
2022/06/06 11:35:26;;;;;;;1.17;1.07;;;20.80;47.30;;;;;;4985556;28;20473;-57
2022/06/06 11:38:11;;;;;;;1.20;1.10;;;20.80;47.30;;;;;;4983878;28;20950;-57
2022/06/06 11:41:15;;;;;;;1.73;1.10;;;20.80;47.30;;;;;;4983615;28;20466;-57
2022/06/06 11:43:59;;;;;;;1.20;1.10;;;20.80;47.40;;;;;;4979995;28;20437;-58
2022/06/06 11:46:45;;;;;;;1.20;1.10;;;20.80;47.50;;;;;;4980441;28;20447;-57
2022/06/06 11:49:22;;;;;;;0.97;0.93;;;20.80;47.30;;;;;;4998796;28;20466;-57
2022/06/06 11:52:11;;;;;;;1.60;1.50;;;20.80;48.10;;;;;;4980272;28;20470;-57
2022/06/06 11:54:59;;;;;;;1.60;1.50;;;20.80;47.40;;;;;;4978774;28;20577;-57
2022/06/06 11:58:04;;;;;;;1.23;1.03;;;20.80;47.40;;;;;;4980767;28;20600;-57
2022/06/06 12:00:57;;;;;;;1.17;1.07;;;20.80;47.40;;;;;;4982082;28;20477;-57
2022/06/06 12:04:03;;;;;;;1.00;1.00;;;20.80;47.40;;;;;;4981834;28;20429;-57
2022/06/06 12:06:41;;;;;;;1.33;1.23;;;20.80;47.40;;;;;;4980522;28;20462;-56
2022/06/06 12:09:51;;;;;;;1.20;1.10;;;20.80;47.40;;;;;;4981848;28;20557;-57
2022/06/06 12:12:26;;;;;;;1.10;1.00;;;20.80;47.40;;;;;;4981350;28;20566;-56
2022/06/06 12:15:11;;;;;;;1.33;1.23;;;20.80;47.50;;;;;;4980684;28;20470;-57
2022/06/06 12:17:42;;;;;;;1.00;1.00;;;20.80;47.40;;;;;;4981210;28;20521;-57
2022/06/06 12:20:20;;;;;;;1.13;1.03;;;20.80;47.40;;;;;;4980922;28;20478;-57
2022/06/06 12:23:22;;;;;;;1.03;0.93;;;20.80;47.40;;;;;;4981831;28;20485;-57
2022/06/06 12:26:18;;;;;;;1.20;1.10;;;20.80;47.40;;;;;;4983893;28;20474;-57
2022/06/06 12:29:00;;;;;;;1.80;1.33;;;20.80;47.30;;;;;;4976887;28;20479;-57
2022/06/06 12:31:51;;;;;;;1.90;1.00;;;20.80;47.40;;;;;;4980643;28;20532;-57
2022/06/06 12:34:21;;;;;;;1.47;1.20;;;20.80;47.30;;;;;;4981696;28;20474;-60
2022/06/06 12:37:15;;;;;;;1.40;1.30;;;20.80;47.40;;;;;;4987996;28;20454;-57
2022/06/06 12:40:14;;;;;;;1.77;1.27;;;20.80;47.50;;;;;;4965575;28;20452;-57
2022/06/06 12:42:43;;;;;;;0.90;0.90;;;20.80;47.40;;;;;;4981216;28;20442;-57
2022/06/06 12:45:46;;;;;;;1.20;1.10;;;20.80;47.40;;;;;;4984570;28;20466;-56
2022/06/06 12:48:38;;;;;;;1.43;1.07;;;20.80;47.40;;;;;;4980652;28;20477;-57
2022/06/06 12:51:29;;;;;;;1.00;1.00;;;20.80;47.40;;;;;;4982510;28;20466;-57
2022/06/06 12:55:13;;;;;;;1.17;1.07;;;20.80;47.40;;;;;;4978853;28;20460;-57
2022/06/06 12:57:28;;;;;;;1.37;1.27;;;20.80;47.30;;;;;;4974083;28;20476;-57
2022/06/06 13:00:04;;;;;;;1.10;1.00;;;20.80;47.40;;;;;;4983484;28;20456;-57
2022/06/06 13:02:38;;;;;;;1.30;1.20;;;20.80;47.40;;;;;;4977745;28;20454;-57
2022/06/06 13:05:26;;;;;;;1.17;1.07;;;20.80;47.40;;;;;;4982511;28;20437;-57
2022/06/06 13:08:20;;;;;;;1.10;1.00;;;20.80;47.40;;;;;;4981855;28;20440;-57
2022/06/06 13:11:12;;;;;;;1.17;1.07;;;20.80;47.30;;;;;;4984524;28;20450;-57
2022/06/06 13:13:59;;;;;;;1.00;1.00;;;20.80;47.30;;;;;;4977440;28;20462;-57
2022/06/06 13:16:27;;;;;;;0.90;0.90;;;20.80;47.40;;;;;;4983865;28;20467;-57
2022/06/06 13:19:05;;;;;;;1.10;1.00;;;20.80;47.40;;;;;;4981767;28;20999;-58
2022/06/06 13:22:01;;;;;;;1.20;1.10;;;20.80;47.30;;;;;;4981307;28;20499;-57
2022/06/06 13:25:01;;;;;;;1.10;1.00;;;20.80;47.30;;;;;;4979277;28;20444;-57
2022/06/06 13:27:31;;;;;;;1.20;1.10;;;20.80;47.30;;;;;;4992964;28;20486;-57
2022/06/06 13:30:22;;;;;;;1.20;1.10;;;20.80;47.40;;;;;;4982519;28;20433;-57
2022/06/06 13:33:05;;;;;;;1.23;1.13;;;20.80;47.40;;;;;;4984206;28;20487;-57
2022/06/06 13:36:00;;;;;;;1.27;1.17;;;20.80;47.40;;;;;;4976113;28;20511;-57
2022/06/06 13:38:41;;;;;;;1.47;1.17;;;20.80;47.30;;;;;;4983153;28;20517;-56
2022/06/06 13:41:42;;;;;;;1.10;1.10;;;20.80;47.40;;;;;;4979349;28;20462;-56
2022/06/06 13:44:46;;;;;;;2.00;1.20;;;20.80;47.40;;;;;;4978800;28;20480;-56
2022/06/06 13:47:28;;;;;;;1.33;1.23;;;20.80;47.30;;;;;;4976425;28;20835;-55
2022/06/06 13:50:18;;;;;;;1.40;1.30;;;20.80;47.20;;;;;;4982707;28;20569;-55
2022/06/06 13:53:15;;;;;;;0.97;0.97;;;20.80;47.20;;;;;;4985132;28;20541;-56
2022/06/06 13:55:41;;;;;;;1.40;1.30;;;20.80;47.20;;;;;;4986617;28;20444;-55
2022/06/06 13:58:24;;;;;;;1.27;1.17;;;20.90;47.40;;;;;;4985220;28;20446;-55
2022/06/06 14:01:11;;;;;;;1.40;1.30;;;20.80;47.30;;;;;;4989660;28;20639;-55
2022/06/06 14:03:55;;;;;;;1.47;1.27;;;20.80;47.30;;;;;;4982954;28;20534;-56
2022/06/06 14:06:40;;;;;;;1.60;1.50;;;20.80;47.40;;;;;;4984027;28;21010;-56
2022/06/06 14:09:05;;;;;;;1.83;1.20;;;20.80;47.40;;;;;;4987018;28;20482;-56
2022/06/06 14:11:56;;;;;;;1.50;1.40;;;20.80;47.50;;;;;;4986848;28;20460;-55
2022/06/06 14:14:24;;;;;;;1.40;1.30;;;20.80;47.50;;;;;;4981905;28;20228;-55
2022/06/06 14:17:09;;;;;;;2.43;1.53;;;20.90;47.60;;;;;;4983666;28;20524;-55